sensor_id;sensor_type;location;lat;lon;timestamp;pressure;altitude;pressure_sealevel;temperature;humidity
77077;BME280;66003;52.286;104.306;2024-03-29T00:01:26;96447.44;;;0.35;28.84
77077;BME280;66003;52.286;104.306;2024-03-29T00:03:53;96454.66;;;0.40;27.93
77077;BME280;66003;52.286;104.306;2024-03-29T00:06:20;96448.28;;;0.93;27.27
77077;BME280;66003;52.286;104.306;2024-03-29T00:08:46;96456.34;;;1.91;26.32
77077;BME280;66003;52.286;104.306;2024-03-29T00:11:12;96450.94;;;2.82;25.44
77077;BME280;66003;52.286;104.306;2024-03-29T00:13:39;96469.75;;;3.31;24.81
77077;BME280;66003;52.286;104.306;2024-03-29T00:16:06;96462.13;;;2.99;24.74
77077;BME280;66003;52.286;104.306;2024-03-29T00:18:32;96467.75;;;2.83;25.97
77077;BME280;66003;52.286;104.306;2024-03-29T00:20:58;96474.19;;;2.66;26.17
77077;BME280;66003;52.286;104.306;2024-03-29T00:23:25;96477.38;;;2.78;27.50
77077;BME280;66003;52.286;104.306;2024-03-29T00:25:51;96476.81;;;2.82;26.43
77077;BME280;66003;52.286;104.306;2024-03-29T00:28:17;96473.31;;;3.01;25.88
77077;BME280;66003;52.286;104.306;2024-03-29T00:30:44;96479.81;;;3.55;26.29
77077;BME280;66003;52.286;104.306;2024-03-29T00:33:10;96476.34;;;3.98;24.94
77077;BME280;66003;52.286;104.306;2024-03-29T00:35:36;96482.13;;;4.49;24.31
77077;BME280;66003;52.286;104.306;2024-03-29T00:38:03;96475.06;;;4.58;23.17
77077;BME280;66003;52.286;104.306;2024-03-29T00:40:29;96480.34;;;5.64;22.11
77077;BME280;66003;52.286;104.306;2024-03-29T00:42:55;96482.06;;;6.81;23.34
77077;BME280;66003;52.286;104.306;2024-03-29T00:45:21;96481.38;;;7.63;22.09
77077;BME280;66003;52.286;104.306;2024-03-29T00:47:48;96483.06;;;8.67;20.23
77077;BME280;66003;52.286;104.306;2024-03-29T00:50:14;96478.50;;;10.55;19.76
77077;BME280;66003;52.286;104.306;2024-03-29T00:52:40;96486.44;;;12.21;17.80
77077;BME280;66003;52.286;104.306;2024-03-29T00:55:07;96481.00;;;13.52;15.95
77077;BME280;66003;52.286;104.306;2024-03-29T00:57:33;96486.72;;;14.52;15.28
77077;BME280;66003;52.286;104.306;2024-03-29T00:59:59;96484.38;;;15.22;14.94
77077;BME280;66003;52.286;104.306;2024-03-29T01:02:25;96488.16;;;15.64;14.40
77077;BME280;66003;52.286;104.306;2024-03-29T01:04:51;96484.28;;;16.90;14.08
77077;BME280;66003;52.286;104.306;2024-03-29T01:07:17;96482.72;;;17.11;13.63
77077;BME280;66003;52.286;104.306;2024-03-29T01:12:59;96492.63;;;17.20;13.52
77077;BME280;66003;52.286;104.306;2024-03-29T01:15:25;96498.25;;;16.30;13.44
77077;BME280;66003;52.286;104.306;2024-03-29T01:17:51;96496.78;;;14.91;14.49
77077;BME280;66003;52.286;104.306;2024-03-29T01:20:17;96502.38;;;14.55;14.62
77077;BME280;66003;52.286;104.306;2024-03-29T01:22:43;96497.84;;;15.62;14.20
77077;BME280;66003;52.286;104.306;2024-03-29T01:25:09;96510.03;;;17.76;14.82
77077;BME280;66003;52.286;104.306;2024-03-29T01:27:37;96506.53;;;17.53;13.18
77077;BME280;66003;52.286;104.306;2024-03-29T01:30:03;96499.00;;;18.78;11.34
77077;BME280;66003;52.286;104.306;2024-03-29T01:32:29;96504.19;;;17.55;12.65
77077;BME280;66003;52.286;104.306;2024-03-29T01:34:55;96496.94;;;18.42;11.33
77077;BME280;66003;52.286;104.306;2024-03-29T01:37:21;96502.50;;;18.19;12.94
77077;BME280;66003;52.286;104.306;2024-03-29T01:39:47;96502.66;;;17.80;12.20
77077;BME280;66003;52.286;104.306;2024-03-29T01:42:13;96499.78;;;18.79;12.49
77077;BME280;66003;52.286;104.306;2024-03-29T01:44:40;96500.06;;;19.41;11.27
77077;BME280;66003;52.286;104.306;2024-03-29T01:47:06;96495.91;;;20.02;11.14
77077;BME280;66003;52.286;104.306;2024-03-29T01:49:32;96489.75;;;21.13;10.92
77077;BME280;66003;52.286;104.306;2024-03-29T01:51:59;96510.66;;;22.17;10.48
77077;BME280;66003;52.286;104.306;2024-03-29T01:54:25;96502.34;;;22.59;9.63
77077;BME280;66003;52.286;104.306;2024-03-29T01:56:51;96504.63;;;22.78;9.79
77077;BME280;66003;52.286;104.306;2024-03-29T01:59:18;96500.00;;;23.41;9.53
77077;BME280;66003;52.286;104.306;2024-03-29T02:01:45;96500.72;;;23.49;8.94
77077;BME280;66003;52.286;104.306;2024-03-29T02:04:12;96493.91;;;23.02;9.60
77077;BME280;66003;52.286;104.306;2024-03-29T02:06:38;96503.38;;;23.01;9.49
77077;BME280;66003;52.286;104.306;2024-03-29T02:09:05;96511.38;;;23.54;9.30
77077;BME280;66003;52.286;104.306;2024-03-29T02:11:33;96515.69;;;23.48;9.00
77077;BME280;66003;52.286;104.306;2024-03-29T02:14:00;96508.09;;;23.04;9.34
77077;BME280;66003;52.286;104.306;2024-03-29T02:16:27;96521.31;;;21.86;9.06
77077;BME280;66003;52.286;104.306;2024-03-29T02:18:53;96532.38;;;20.67;9.64
77077;BME280;66003;52.286;104.306;2024-03-29T02:21:19;96532.47;;;19.32;10.31
77077;BME280;66003;52.286;104.306;2024-03-29T02:23:47;96527.03;;;18.42;10.53
77077;BME280;66003;52.286;104.306;2024-03-29T02:26:14;96524.38;;;18.45;10.69
77077;BME280;66003;52.286;104.306;2024-03-29T02:28:40;96542.06;;;17.99;10.68
77077;BME280;66003;52.286;104.306;2024-03-29T02:31:06;96536.00;;;18.12;11.11
77077;BME280;66003;52.286;104.306;2024-03-29T02:33:34;96535.97;;;17.86;11.21
77077;BME280;66003;52.286;104.306;2024-03-29T02:36:00;96534.28;;;17.78;10.76
77077;BME280;66003;52.286;104.306;2024-03-29T02:38:26;96544.59;;;17.88;10.94
77077;BME280;66003;52.286;104.306;2024-03-29T02:40:52;96540.38;;;18.17;10.88
77077;BME280;66003;52.286;104.306;2024-03-29T02:43:18;96551.16;;;18.06;10.72
77077;BME280;66003;52.286;104.306;2024-03-29T02:45:45;96550.44;;;16.13;11.30
77077;BME280;66003;52.286;104.306;2024-03-29T02:48:11;96553.53;;;13.76;12.56
77077;BME280;66003;52.286;104.306;2024-03-29T02:50:37;96550.03;;;11.47;13.89
77077;BME280;66003;52.286;104.306;2024-03-29T02:53:03;96553.50;;;10.49;14.77
77077;BME280;66003;52.286;104.306;2024-03-29T02:55:29;96561.72;;;8.77;15.15
77077;BME280;66003;52.286;104.306;2024-03-29T02:57:55;96559.84;;;7.78;16.25
77077;BME280;66003;52.286;104.306;2024-03-29T03:00:21;96559.34;;;6.70;17.30
77077;BME280;66003;52.286;104.306;2024-03-29T03:02:47;96563.84;;;6.00;17.65
77077;BME280;66003;52.286;104.306;2024-03-29T03:05:14;96558.63;;;5.42;18.17
77077;BME280;66003;52.286;104.306;2024-03-29T03:07:40;96561.66;;;5.12;17.92
77077;BME280;66003;52.286;104.306;2024-03-29T03:10:24;96558.44;;;5.10;18.57
77077;BME280;66003;52.286;104.306;2024-03-29T03:13:09;96564.78;;;4.90;18.60
77077;BME280;66003;52.286;104.306;2024-03-29T03:15:35;96572.94;;;4.70;18.94
77077;BME280;66003;52.286;104.306;2024-03-29T03:18:01;96568.66;;;4.69;18.01
77077;BME280;66003;52.286;104.306;2024-03-29T03:20:27;96570.22;;;4.41;18.92
77077;BME280;66003;52.286;104.306;2024-03-29T03:22:57;96565.50;;;4.22;18.97
77077;BME280;66003;52.286;104.306;2024-03-29T03:25:26;96563.44;;;4.09;19.45
77077;BME280;66003;52.286;104.306;2024-03-29T03:27:53;96568.91;;;3.94;19.41
77077;BME280;66003;52.286;104.306;2024-03-29T03:30:19;96565.81;;;3.67;19.30
77077;BME280;66003;52.286;104.306;2024-03-29T03:32:45;96560.19;;;3.68;19.24
77077;BME280;66003;52.286;104.306;2024-03-29T03:35:12;96572.00;;;3.57;19.85
77077;BME280;66003;52.286;104.306;2024-03-29T03:37:39;96571.75;;;3.48;20.68
77077;BME280;66003;52.286;104.306;2024-03-29T03:40:06;96568.59;;;3.31;19.59
77077;BME280;66003;52.286;104.306;2024-03-29T03:42:33;96573.19;;;2.90;20.62
77077;BME280;66003;52.286;104.306;2024-03-29T03:44:59;96571.84;;;2.52;20.87
77077;BME280;66003;52.286;104.306;2024-03-29T03:47:25;96569.97;;;2.48;21.23
77077;BME280;66003;52.286;104.306;2024-03-29T03:49:51;96570.25;;;2.71;21.27
77077;BME280;66003;52.286;104.306;2024-03-29T03:52:17;96567.31;;;2.88;21.17
77077;BME280;66003;52.286;104.306;2024-03-29T03:54:43;96574.22;;;3.04;20.83
77077;BME280;66003;52.286;104.306;2024-03-29T03:57:09;96570.47;;;3.05;21.61
77077;BME280;66003;52.286;104.306;2024-03-29T03:59:36;96570.22;;;3.12;21.15
77077;BME280;66003;52.286;104.306;2024-03-29T04:02:02;96575.06;;;2.90;20.82
77077;BME280;66003;52.286;104.306;2024-03-29T04:04:28;96584.91;;;2.59;21.34
77077;BME280;66003;52.286;104.306;2024-03-29T04:06:54;96574.53;;;2.52;21.44
77077;BME280;66003;52.286;104.306;2024-03-29T04:09:20;96567.84;;;2.55;21.58
77077;BME280;66003;52.286;104.306;2024-03-29T04:11:46;96568.66;;;2.50;22.66
77077;BME280;66003;52.286;104.306;2024-03-29T04:14:12;96560.91;;;2.38;22.57
77077;BME280;66003;52.286;104.306;2024-03-29T04:16:39;96576.63;;;2.45;22.87
77077;BME280;66003;52.286;104.306;2024-03-29T04:19:05;96574.53;;;2.42;22.43
77077;BME280;66003;52.286;104.306;2024-03-29T04:21:31;96577.44;;;2.30;22.87
77077;BME280;66003;52.286;104.306;2024-03-29T04:23:57;96571.28;;;2.20;22.61
77077;BME280;66003;52.286;104.306;2024-03-29T04:26:23;96579.25;;;2.10;23.57
77077;BME280;66003;52.286;104.306;2024-03-29T04:28:49;96570.97;;;2.11;22.70
77077;BME280;66003;52.286;104.306;2024-03-29T04:31:16;96575.53;;;2.16;23.28
77077;BME280;66003;52.286;104.306;2024-03-29T04:33:42;96563.00;;;2.21;23.19
77077;BME280;66003;52.286;104.306;2024-03-29T04:36:08;96568.06;;;2.13;23.75
77077;BME280;66003;52.286;104.306;2024-03-29T04:38:34;96570.97;;;1.96;23.52
77077;BME280;66003;52.286;104.306;2024-03-29T04:41:01;96571.78;;;1.96;23.82
77077;BME280;66003;52.286;104.306;2024-03-29T04:43:28;96577.34;;;2.00;23.95
77077;BME280;66003;52.286;104.306;2024-03-29T04:48:33;96581.19;;;2.39;23.40
77077;BME280;66003;52.286;104.306;2024-03-29T04:50:59;96573.44;;;2.38;23.50
77077;BME280;66003;52.286;104.306;2024-03-29T04:53:25;96573.44;;;2.68;22.61
77077;BME280;66003;52.286;104.306;2024-03-29T04:55:55;96565.72;;;2.67;23.33
77077;BME280;66003;52.286;104.306;2024-03-29T04:58:27;96558.22;;;2.59;23.22
77077;BME280;66003;52.286;104.306;2024-03-29T05:00:54;96563.06;;;2.52;23.43
77077;BME280;66003;52.286;104.306;2024-03-29T05:03:22;96555.84;;;2.47;23.14
77077;BME280;66003;52.286;104.306;2024-03-29T05:05:50;96564.38;;;2.29;23.15
77077;BME280;66003;52.286;104.306;2024-03-29T05:08:17;96563.81;;;2.27;23.12
77077;BME280;66003;52.286;104.306;2024-03-29T05:10:46;96565.91;;;1.94;23.13
77077;BME280;66003;52.286;104.306;2024-03-29T05:13:12;96558.50;;;2.32;22.87
77077;BME280;66003;52.286;104.306;2024-03-29T05:15:39;96554.72;;;2.13;22.67
77077;BME280;66003;52.286;104.306;2024-03-29T05:18:05;96552.34;;;2.26;23.12
77077;BME280;66003;52.286;104.306;2024-03-29T05:20:31;96552.63;;;2.25;23.23
77077;BME280;66003;52.286;104.306;2024-03-29T05:22:58;96543.56;;;2.26;23.02
77077;BME280;66003;52.286;104.306;2024-03-29T05:25:25;96541.91;;;1.94;23.31
77077;BME280;66003;52.286;104.306;2024-03-29T05:27:52;96547.97;;;1.75;23.08
77077;BME280;66003;52.286;104.306;2024-03-29T05:30:18;96537.34;;;1.90;23.38
77077;BME280;66003;52.286;104.306;2024-03-29T05:32:44;96531.25;;;2.04;23.14
77077;BME280;66003;52.286;104.306;2024-03-29T05:35:11;96520.34;;;2.11;22.85
77077;BME280;66003;52.286;104.306;2024-03-29T05:37:37;96535.03;;;2.19;22.81
77077;BME280;66003;52.286;104.306;2024-03-29T05:40:04;96521.69;;;2.24;23.35
77077;BME280;66003;52.286;104.306;2024-03-29T05:42:32;96526.22;;;2.33;22.95
77077;BME280;66003;52.286;104.306;2024-03-29T05:45:00;96531.81;;;2.37;23.33
77077;BME280;66003;52.286;104.306;2024-03-29T05:47:26;96528.63;;;2.50;22.84
77077;BME280;66003;52.286;104.306;2024-03-29T05:49:53;96523.56;;;2.64;23.14
77077;BME280;66003;52.286;104.306;2024-03-29T05:52:20;96524.09;;;2.66;22.60
77077;BME280;66003;52.286;104.306;2024-03-29T05:54:49;96516.34;;;2.64;23.37
77077;BME280;66003;52.286;104.306;2024-03-29T05:57:16;96516.59;;;2.88;23.09
77077;BME280;66003;52.286;104.306;2024-03-29T05:59:42;96508.06;;;2.76;22.93
77077;BME280;66003;52.286;104.306;2024-03-29T06:02:08;96503.81;;;2.75;22.84
77077;BME280;66003;52.286;104.306;2024-03-29T06:04:34;96510.19;;;2.89;22.84
77077;BME280;66003;52.286;104.306;2024-03-29T06:07:01;96495.44;;;3.07;22.53
77077;BME280;66003;52.286;104.306;2024-03-29T06:09:28;96492.78;;;3.22;22.28
77077;BME280;66003;52.286;104.306;2024-03-29T06:11:54;96482.63;;;3.19;22.41
77077;BME280;66003;52.286;104.306;2024-03-29T06:14:23;96485.56;;;3.07;22.11
77077;BME280;66003;52.286;104.306;2024-03-29T06:17:07;96492.31;;;2.90;22.40
77077;BME280;66003;52.286;104.306;2024-03-29T06:19:54;96483.25;;;2.75;22.56
77077;BME280;66003;52.286;104.306;2024-03-29T06:22:26;96474.72;;;2.68;22.63
77077;BME280;66003;52.286;104.306;2024-03-29T06:24:56;96468.84;;;2.76;22.57
77077;BME280;66003;52.286;104.306;2024-03-29T06:27:32;96464.75;;;3.04;22.23
77077;BME280;66003;52.286;104.306;2024-03-29T06:30:00;96468.22;;;3.05;22.36
77077;BME280;66003;52.286;104.306;2024-03-29T06:32:26;96461.75;;;3.36;22.34
77077;BME280;66003;52.286;104.306;2024-03-29T06:34:52;96463.13;;;3.24;22.21
77077;BME280;66003;52.286;104.306;2024-03-29T06:37:18;96462.53;;;3.37;22.31
77077;BME280;66003;52.286;104.306;2024-03-29T06:39:51;96462.22;;;3.48;22.24
77077;BME280;66003;52.286;104.306;2024-03-29T06:42:17;96466.75;;;3.48;22.23
77077;BME280;66003;52.286;104.306;2024-03-29T06:44:44;96455.81;;;3.49;22.06
77077;BME280;66003;52.286;104.306;2024-03-29T06:47:10;96454.25;;;3.33;21.75
77077;BME280;66003;52.286;104.306;2024-03-29T06:49:37;96453.78;;;3.21;21.81
77077;BME280;66003;52.286;104.306;2024-03-29T06:52:03;96451.13;;;3.06;21.86
77077;BME280;66003;52.286;104.306;2024-03-29T06:54:30;96453.56;;;2.97;21.97
77077;BME280;66003;52.286;104.306;2024-03-29T06:56:58;96460.56;;;2.78;22.22
77077;BME280;66003;52.286;104.306;2024-03-29T06:59:27;96462.69;;;2.81;22.68
77077;BME280;66003;52.286;104.306;2024-03-29T07:01:54;96454.41;;;2.83;22.15
77077;BME280;66003;52.286;104.306;2024-03-29T07:04:22;96454.59;;;3.06;22.38
77077;BME280;66003;52.286;104.306;2024-03-29T07:06:52;96458.03;;;3.17;22.00
77077;BME280;66003;52.286;104.306;2024-03-29T07:09:21;96452.19;;;3.20;21.82
77077;BME280;66003;52.286;104.306;2024-03-29T07:11:49;96443.69;;;2.93;22.04
77077;BME280;66003;52.286;104.306;2024-03-29T07:14:17;96442.69;;;2.73;22.28
77077;BME280;66003;52.286;104.306;2024-03-29T07:16:44;96443.19;;;2.86;22.42
77077;BME280;66003;52.286;104.306;2024-03-29T07:19:12;96442.09;;;2.92;22.18
77077;BME280;66003;52.286;104.306;2024-03-29T07:21:39;96435.94;;;2.96;22.06
77077;BME280;66003;52.286;104.306;2024-03-29T07:24:06;96441.03;;;3.03;21.80
77077;BME280;66003;52.286;104.306;2024-03-29T07:26:33;96427.38;;;3.09;21.66
77077;BME280;66003;52.286;104.306;2024-03-29T07:28:59;96429.53;;;3.02;22.02
77077;BME280;66003;52.286;104.306;2024-03-29T07:31:26;96432.97;;;3.08;22.46
77077;BME280;66003;52.286;104.306;2024-03-29T07:33:52;96436.41;;;3.24;21.75
77077;BME280;66003;52.286;104.306;2024-03-29T07:36:19;96424.38;;;3.16;21.88
77077;BME280;66003;52.286;104.306;2024-03-29T07:38:45;96419.63;;;3.13;21.93
77077;BME280;66003;52.286;104.306;2024-03-29T07:41:11;96418.81;;;3.12;21.75
77077;BME280;66003;52.286;104.306;2024-03-29T07:43:39;96407.66;;;3.00;21.72
77077;BME280;66003;52.286;104.306;2024-03-29T07:46:07;96408.78;;;2.79;22.22
77077;BME280;66003;52.286;104.306;2024-03-29T07:48:35;96408.78;;;2.79;22.07
77077;BME280;66003;52.286;104.306;2024-03-29T07:51:02;96405.84;;;2.81;22.17
77077;BME280;66003;52.286;104.306;2024-03-29T07:53:28;96410.38;;;2.85;22.32
77077;BME280;66003;52.286;104.306;2024-03-29T07:55:56;96413.34;;;2.78;22.07
77077;BME280;66003;52.286;104.306;2024-03-29T07:58:22;96416.00;;;2.68;21.58
77077;BME280;66003;52.286;104.306;2024-03-29T08:00:51;96407.78;;;2.55;21.83
77077;BME280;66003;52.286;104.306;2024-03-29T08:03:18;96410.16;;;2.61;21.96
77077;BME280;66003;52.286;104.306;2024-03-29T08:05:57;96390.97;;;2.54;22.13
77077;BME280;66003;52.286;104.306;2024-03-29T08:08:23;96409.38;;;2.46;21.94
77077;BME280;66003;52.286;104.306;2024-03-29T08:10:51;96405.66;;;2.52;21.93
77077;BME280;66003;52.286;104.306;2024-03-29T08:13:17;96403.50;;;2.59;22.21
77077;BME280;66003;52.286;104.306;2024-03-29T08:15:46;96401.63;;;2.64;22.02
77077;BME280;66003;52.286;104.306;2024-03-29T08:18:13;96417.91;;;2.58;21.84
77077;BME280;66003;52.286;104.306;2024-03-29T08:20:40;96409.38;;;2.51;21.83
77077;BME280;66003;52.286;104.306;2024-03-29T08:23:06;96396.84;;;2.46;21.78
77077;BME280;66003;52.286;104.306;2024-03-29T08:25:32;96397.63;;;2.62;21.66
77077;BME280;66003;52.286;104.306;2024-03-29T08:27:58;96393.34;;;2.61;22.23
77077;BME280;66003;52.286;104.306;2024-03-29T08:30:25;96392.03;;;2.58;21.86
77077;BME280;66003;52.286;104.306;2024-03-29T08:32:51;96387.22;;;2.65;22.09
77077;BME280;66003;52.286;104.306;2024-03-29T08:35:19;96389.38;;;2.53;21.84
77077;BME280;66003;52.286;104.306;2024-03-29T08:37:46;96385.13;;;2.37;21.96
77077;BME280;66003;52.286;104.306;2024-03-29T08:40:12;96380.84;;;2.51;22.31
77077;BME280;66003;52.286;104.306;2024-03-29T08:42:38;96383.50;;;2.56;21.61
77077;BME280;66003;52.286;104.306;2024-03-29T08:45:05;96381.91;;;2.55;21.78
77077;BME280;66003;52.286;104.306;2024-03-29T08:47:34;96382.16;;;2.64;21.90
77077;BME280;66003;52.286;104.306;2024-03-29T08:50:00;96383.78;;;2.45;21.84
77077;BME280;66003;52.286;104.306;2024-03-29T08:52:30;96390.19;;;2.33;21.80
77077;BME280;66003;52.286;104.306;2024-03-29T08:54:56;96389.69;;;2.41;22.08
77077;BME280;66003;52.286;104.306;2024-03-29T08:57:23;96382.97;;;2.49;21.80
77077;BME280;66003;52.286;104.306;2024-03-29T08:59:49;96387.53;;;2.38;22.22
77077;BME280;66003;52.286;104.306;2024-03-29T09:02:15;96394.97;;;2.47;22.29
77077;BME280;66003;52.286;104.306;2024-03-29T09:04:41;96396.88;;;2.36;22.13
77077;BME280;66003;52.286;104.306;2024-03-29T09:07:07;96394.22;;;2.31;22.03
77077;BME280;66003;52.286;104.306;2024-03-29T09:09:33;96392.09;;;2.23;22.23
77077;BME280;66003;52.286;104.306;2024-03-29T09:12:00;96392.91;;;2.18;22.21
77077;BME280;66003;52.286;104.306;2024-03-29T09:14:26;96395.81;;;2.27;22.41
77077;BME280;66003;52.286;104.306;2024-03-29T09:16:53;96392.66;;;2.20;22.27
77077;BME280;66003;52.286;104.306;2024-03-29T09:19:19;96388.91;;;2.11;22.15
77077;BME280;66003;52.286;104.306;2024-03-29T09:21:45;96391.31;;;2.12;22.54
77077;BME280;66003;52.286;104.306;2024-03-29T09:24:12;96398.78;;;2.15;22.33
77077;BME280;66003;52.286;104.306;2024-03-29T09:26:38;96388.13;;;2.05;22.85
77077;BME280;66003;52.286;104.306;2024-03-29T09:29:06;96396.13;;;2.05;22.67
77077;BME280;66003;52.286;104.306;2024-03-29T09:31:32;96389.44;;;2.13;22.59
77077;BME280;66003;52.286;104.306;2024-03-29T09:33:58;96393.97;;;2.12;22.36
77077;BME280;66003;52.286;104.306;2024-03-29T09:36:24;96388.09;;;2.10;22.30
77077;BME280;66003;52.286;104.306;2024-03-29T09:38:51;96395.03;;;2.16;22.55
77077;BME280;66003;52.286;104.306;2024-03-29T09:41:18;96395.03;;;2.16;22.43
77077;BME280;66003;52.286;104.306;2024-03-29T09:43:46;96391.59;;;1.95;22.47
77077;BME280;66003;52.286;104.306;2024-03-29T09:46:13;96387.84;;;1.91;22.52
77077;BME280;66003;52.286;104.306;2024-03-29T09:48:40;96392.38;;;2.11;22.24
77077;BME280;66003;52.286;104.306;2024-03-29T09:51:08;96387.03;;;2.01;22.75
77077;BME280;66003;52.286;104.306;2024-03-29T09:53:36;96391.84;;;1.94;22.76
77077;BME280;66003;52.286;104.306;2024-03-29T09:56:06;96400.91;;;1.78;22.53
77077;BME280;66003;52.286;104.306;2024-03-29T09:58:33;96405.44;;;1.72;23.03
77077;BME280;66003;52.286;104.306;2024-03-29T10:01:00;96393.72;;;1.73;22.71
77077;BME280;66003;52.286;104.306;2024-03-29T10:03:27;96398.75;;;1.64;22.80
77077;BME280;66003;52.286;104.306;2024-03-29T10:05:59;96397.69;;;1.60;22.80
77077;BME280;66003;52.286;104.306;2024-03-29T10:08:30;96400.88;;;1.52;22.74
77077;BME280;66003;52.286;104.306;2024-03-29T10:10:57;96401.94;;;1.51;23.06
77077;BME280;66003;52.286;104.306;2024-03-29T10:13:24;96398.44;;;1.41;23.05
77077;BME280;66003;52.286;104.306;2024-03-29T10:15:53;96397.94;;;1.44;23.10
77077;BME280;66003;52.286;104.306;2024-03-29T10:18:24;96397.09;;;1.33;23.06
77077;BME280;66003;52.286;104.306;2024-03-29T10:21:07;96398.97;;;1.32;22.90
77077;BME280;66003;52.286;104.306;2024-03-29T10:23:35;96397.59;;;1.30;22.74
77077;BME280;66003;52.286;104.306;2024-03-29T10:26:02;96387.22;;;1.23;22.83
77077;BME280;66003;52.286;104.306;2024-03-29T10:28:33;96390.97;;;1.32;22.69
77077;BME280;66003;52.286;104.306;2024-03-29T10:31:04;96385.31;;;1.14;23.00
77077;BME280;66003;52.286;104.306;2024-03-29T10:33:34;96396.19;;;1.02;22.91
77077;BME280;66003;52.286;104.306;2024-03-29T10:36:02;96402.00;;;0.94;23.35
77077;BME280;66003;52.286;104.306;2024-03-29T10:38:34;96395.03;;;0.78;23.57
77077;BME280;66003;52.286;104.306;2024-03-29T10:41:01;96396.06;;;0.67;23.46
77077;BME280;66003;52.286;104.306;2024-03-29T10:43:29;96394.97;;;0.68;23.47
77077;BME280;66003;52.286;104.306;2024-03-29T10:45:56;96397.84;;;0.56;24.04
77077;BME280;66003;52.286;104.306;2024-03-29T10:48:26;96403.16;;;0.56;23.80
77077;BME280;66003;52.286;104.306;2024-03-29T10:50:54;96414.00;;;0.44;23.89
77077;BME280;66003;52.286;104.306;2024-03-29T10:53:23;96418.19;;;0.35;23.85
77077;BME280;66003;52.286;104.306;2024-03-29T10:55:54;96423.81;;;0.39;23.91
77077;BME280;66003;52.286;104.306;2024-03-29T10:58:25;96416.56;;;0.29;24.43
77077;BME280;66003;52.286;104.306;2024-03-29T11:00:57;96418.44;;;0.29;24.22
77077;BME280;66003;52.286;104.306;2024-03-29T11:03:54;96418.06;;;0.20;24.74
77077;BME280;66003;52.286;104.306;2024-03-29T11:06:26;96406.31;;;0.06;25.11
77077;BME280;66003;52.286;104.306;2024-03-29T11:08:54;96408.66;;;0.02;24.79
77077;BME280;66003;52.286;104.306;2024-03-29T11:11:22;96412.53;;;-0.11;25.19
77077;BME280;66003;52.286;104.306;2024-03-29T11:14:03;96409.09;;;-0.11;24.88
77077;BME280;66003;52.286;104.306;2024-03-29T11:16:32;96414.00;;;-0.25;25.03
77077;BME280;66003;52.286;104.306;2024-03-29T11:18:59;96416.13;;;-0.27;24.51
77077;BME280;66003;52.286;104.306;2024-03-29T11:21:31;96422.13;;;-0.36;24.89
77077;BME280;66003;52.286;104.306;2024-03-29T11:23:58;96420.41;;;-0.53;25.51
77077;BME280;66003;52.286;104.306;2024-03-29T11:26:27;96419.50;;;-0.63;25.77
77077;BME280;66003;52.286;104.306;2024-03-29T11:28:54;96425.56;;;-0.68;25.32
77077;BME280;66003;52.286;104.306;2024-03-29T11:31:22;96423.03;;;-0.79;25.63
77077;BME280;66003;52.286;104.306;2024-03-29T11:33:50;96424.91;;;-0.80;25.19
77077;BME280;66003;52.286;104.306;2024-03-29T11:36:22;96419.16;;;-0.94;25.96
77077;BME280;66003;52.286;104.306;2024-03-29T11:38:54;96415.94;;;-0.96;25.67
77077;BME280;66003;52.286;104.306;2024-03-29T11:41:24;96420.66;;;-1.03;26.12
77077;BME280;66003;52.286;104.306;2024-03-29T11:43:51;96417.63;;;-1.11;25.91
77077;BME280;66003;52.286;104.306;2024-03-29T11:46:18;96414.56;;;-1.20;26.11
77077;BME280;66003;52.286;104.306;2024-03-29T11:48:45;96420.09;;;-1.22;26.08
77077;BME280;66003;52.286;104.306;2024-03-29T11:51:19;96420.06;;;-1.27;26.26
77077;BME280;66003;52.286;104.306;2024-03-29T11:53:48;96421.59;;;-1.31;26.20
77077;BME280;66003;52.286;104.306;2024-03-29T11:56:19;96422.03;;;-1.39;26.30
77077;BME280;66003;52.286;104.306;2024-03-29T11:58:46;96425.72;;;-1.40;26.53
77077;BME280;66003;52.286;104.306;2024-03-29T12:01:14;96421.94;;;-1.44;26.34
77077;BME280;66003;52.286;104.306;2024-03-29T12:03:42;96425.34;;;-1.48;26.61
77077;BME280;66003;52.286;104.306;2024-03-29T12:06:10;96430.56;;;-1.53;26.50
77077;BME280;66003;52.286;104.306;2024-03-29T12:08:39;96424.41;;;-1.59;26.65
77077;BME280;66003;52.286;104.306;2024-03-29T12:11:05;96429.94;;;-1.61;26.61
77077;BME280;66003;52.286;104.306;2024-03-29T12:13:32;96422.47;;;-1.64;26.68
77077;BME280;66003;52.286;104.306;2024-03-29T12:16:00;96420.63;;;-1.63;26.98
77077;BME280;66003;52.286;104.306;2024-03-29T12:18:26;96433.88;;;-1.46;26.83
77077;BME280;66003;52.286;104.306;2024-03-29T12:20:54;96426.00;;;-1.58;26.82
77077;BME280;66003;52.286;104.306;2024-03-29T12:23:22;96428.16;;;-1.55;26.11
77077;BME280;66003;52.286;104.306;2024-03-29T12:25:49;96419.59;;;-1.62;26.80
77077;BME280;66003;52.286;104.306;2024-03-29T12:28:17;96421.19;;;-1.61;26.28
77077;BME280;66003;52.286;104.306;2024-03-29T12:30:45;96423.28;;;-1.63;26.80
77077;BME280;66003;52.286;104.306;2024-03-29T12:33:13;96418.47;;;-1.66;26.63
77077;BME280;66003;52.286;104.306;2024-03-29T12:35:50;96422.81;;;-1.60;26.04
77077;BME280;66003;52.286;104.306;2024-03-29T12:38:19;96419.59;;;-1.62;25.99
77077;BME280;66003;52.286;104.306;2024-03-29T12:40:48;96409.41;;;-1.70;26.35
77077;BME280;66003;52.286;104.306;2024-03-29T12:43:22;96411.56;;;-1.67;25.62
77077;BME280;66003;52.286;104.306;2024-03-29T12:45:50;96416.63;;;-1.66;25.78
77077;BME280;66003;52.286;104.306;2024-03-29T12:48:19;96420.25;;;-1.72;25.82
77077;BME280;66003;52.286;104.306;2024-03-29T12:50:47;96429.38;;;-1.79;25.99
77077;BME280;66003;52.286;104.306;2024-03-29T12:53:14;96427.50;;;-1.84;26.84
77077;BME280;66003;52.286;104.306;2024-03-29T12:55:46;96428.19;;;-1.88;26.92